createdAt,value
2023-01-17T03:03:11.886Z,98203.59
2023-01-17T03:05:51.037Z,98208.22
2023-01-17T03:08:19.275Z,98203.94
2023-01-17T03:10:46.421Z,98202.03
2023-01-17T03:13:13.233Z,98209.03
2023-01-17T03:15:41.033Z,98193.41
2023-01-17T03:18:14.176Z,98192.63
2023-01-17T03:20:41.824Z,98206.50
2023-01-17T03:23:08.903Z,98187.84
2023-01-17T03:25:35.549Z,98187.50
2023-01-17T03:28:02.188Z,98191.03
2023-01-17T03:30:28.894Z,98193.72
2023-01-17T03:32:55.487Z,98191.03
2023-01-17T03:35:22.118Z,98184.50
2023-01-17T03:37:48.807Z,98194.53
2023-01-17T03:40:15.434Z,98187.19
2023-01-17T03:42:42.821Z,98186.88
2023-01-17T03:45:09.899Z,98183.81
2023-01-17T03:47:36.530Z,98190.38
2023-01-17T03:50:03.869Z,98186.06
2023-01-17T03:52:30.638Z,98196.44
2023-01-17T03:54:57.335Z,98196.44
2023-01-17T03:57:23.982Z,98196.91
2023-01-17T03:59:50.635Z,98189.91
2023-01-17T04:02:17.752Z,98198.34
2023-01-17T04:04:44.442Z,98198.69
2023-01-17T04:07:11.129Z,98210.00
2023-01-17T04:09:37.871Z,98213.38
2023-01-17T04:12:04.573Z,98208.59
2023-01-17T04:14:31.231Z,98212.28
2023-01-17T04:16:58.031Z,98210.56
2023-01-17T04:19:24.683Z,98201.47
2023-01-17T04:21:51.318Z,98206.44
2023-01-17T04:24:18.249Z,98209.31
2023-01-17T04:26:45.037Z,98210.75
2023-01-17T04:29:11.669Z,98206.78
2023-01-17T04:31:38.658Z,98209.97
2023-01-17T04:34:05.375Z,98209.97
2023-01-17T04:36:32.364Z,98202.16
2023-01-17T04:38:59.046Z,98212.22
2023-01-17T04:41:25.701Z,98220.34
2023-01-17T04:43:52.317Z,98214.44
2023-01-17T04:46:19.089Z,98225.13
2023-01-17T04:48:45.760Z,98219.56
2023-01-17T04:51:12.508Z,98216.03
2023-01-17T04:53:39.160Z,98210.81
2023-01-17T04:56:06.006Z,98223.09
2023-01-17T04:58:33.468Z,98225.31
2023-01-17T05:01:05.129Z,98232.34
2023-01-17T05:03:32.472Z,98233.94
2023-01-17T05:05:59.902Z,98238.53
2023-01-17T05:08:26.698Z,98242.53
2023-01-17T05:10:54.614Z,98236.47
2023-01-17T05:13:21.228Z,98234.72
2023-01-17T05:15:48.124Z,98236.28
2023-01-17T05:18:16.670Z,98229.75
2023-01-17T05:20:44.060Z,98226.72
2023-01-17T05:23:11.357Z,98230.69
2023-01-17T05:25:38.221Z,98230.69
2023-01-17T05:28:05.052Z,98226.88
2023-01-17T05:30:32.715Z,98222.25
2023-01-17T05:32:59.679Z,98219.84
2023-01-17T05:35:29.013Z,98222.09
2023-01-17T05:37:57.719Z,98220.97
2023-01-17T05:40:29.572Z,98222.88
2023-01-17T05:42:57.839Z,98224.50
2023-01-17T05:45:27.068Z,98226.41
2023-01-17T05:47:55.338Z,98227.19
2023-01-17T05:50:35.084Z,98237.25
2023-01-17T05:53:11.393Z,98234.53
2023-01-17T05:55:38.683Z,98239.97
2023-01-17T05:58:07.481Z,98228.31
2023-01-17T06:00:34.527Z,98247.28
2023-01-17T06:03:01.553Z,98236.09
2023-01-17T06:05:29.295Z,98236.09
2023-01-17T06:07:56.686Z,98235.63
2023-01-17T06:10:24.139Z,98246.19
2023-01-17T06:13:00.009Z,98248.88
2023-01-17T06:15:26.618Z,98243.47
2023-01-17T06:17:53.304Z,98244.72
2023-01-17T06:20:20.023Z,98253.97
2023-01-17T06:22:46.733Z,98256.69
2023-01-17T06:25:13.641Z,98245.84
2023-01-17T06:27:41.699Z,98250.47
2023-01-17T06:30:09.024Z,98253.66
2023-01-17T06:32:35.693Z,98239.31
2023-01-17T06:35:02.364Z,98248.56
2023-01-17T06:37:28.989Z,98244.72
2023-01-17T06:39:55.682Z,98252.38
2023-01-17T06:42:22.454Z,98251.72
2023-01-17T06:44:49.083Z,98249.50
2023-01-17T06:47:15.699Z,98257.16
2023-01-17T06:49:43.435Z,98261.81
2023-01-17T06:52:10.118Z,98270.88
2023-01-17T06:54:36.729Z,98266.09
2023-01-17T06:57:03.431Z,98279.19
2023-01-17T06:59:30.017Z,98276.47
2023-01-17T07:01:56.767Z,98290.34
2023-01-17T07:04:23.440Z,98285.72
2023-01-17T07:06:50.363Z,98288.44
2023-01-17T07:09:18.507Z,98284.59
2023-01-17T07:11:47.677Z,98292.91
2023-01-17T07:14:14.703Z,98297.19
2023-01-17T07:16:45.352Z,98302.13
2023-01-17T07:19:12.403Z,98300.88
2023-01-17T07:21:41.211Z,98300.41
2023-01-17T07:24:09.277Z,98314.59
2023-01-17T07:26:37.852Z,98307.09
2023-01-17T07:29:05.516Z,98312.84
2023-01-17T07:31:38.203Z,98314.91
2023-01-17T07:34:05.409Z,98317.16
2023-01-17T07:36:33.317Z,98317.16
2023-01-17T07:39:00.099Z,98324.00
2023-01-17T07:41:34.650Z,98339.47
2023-01-17T07:44:04.772Z,98335.78
2023-01-17T07:46:31.803Z,98341.03
2023-01-17T07:49:00.738Z,98333.25
2023-01-17T07:51:27.560Z,98326.22
2023-01-17T07:53:54.542Z,98333.06
2023-01-17T07:56:21.680Z,98342.34
2023-01-17T07:58:48.688Z,98341.69
2023-01-17T08:01:16.979Z,98337.06
2023-01-17T08:03:45.530Z,98349.50
2023-01-17T08:06:26.146Z,98351.09
2023-01-17T08:08:56.564Z,98355.25
2023-01-17T08:11:23.803Z,98368.78
2023-01-17T08:13:57.544Z,98379.94
2023-01-17T08:16:25.468Z,98379.63
2023-01-17T08:18:53.770Z,98377.41
2023-01-17T08:21:20.556Z,98382.00
2023-01-17T08:23:48.837Z,98386.63
2023-01-17T08:26:22.428Z,98375.78
2023-01-17T08:28:57.102Z,98376.25
2023-01-17T08:31:24.708Z,98376.91
2023-01-17T08:33:51.471Z,98371.00
2023-01-17T08:36:18.430Z,98377.06
2023-01-17T08:38:45.288Z,98382.78
2023-01-17T08:41:13.073Z,98393.63
2023-01-17T08:43:39.779Z,98390.13
2023-01-17T08:46:06.662Z,98396.66
2023-01-17T08:48:33.451Z,98397.31
2023-01-17T08:51:02.197Z,98401.28
2023-01-17T08:53:29.197Z,98396.97
2023-01-17T08:56:01.092Z,98393.78
2023-01-17T08:58:30.707Z,98394.59
2023-01-17T09:01:04.477Z,98405.44
2023-01-17T09:03:32.685Z,98396.97
2023-01-17T09:06:13.372Z,98406.69
2023-01-17T09:08:40.606Z,98409.56
2023-01-17T09:11:10.171Z,98409.56
2023-01-17T09:13:37.909Z,98426.00
2023-01-17T09:16:05.746Z,98420.56
2023-01-17T09:18:35.240Z,98433.00
2023-01-17T09:21:16.129Z,98432.22
2023-01-17T09:23:43.495Z,98439.22
2023-01-17T09:26:25.505Z,98445.75
2023-01-17T09:28:52.351Z,98438.56
2023-01-17T09:31:23.348Z,98444.00
2023-01-17T09:33:51.478Z,98449.41
2023-01-17T09:36:18.475Z,98450.38
2023-01-17T09:38:45.233Z,98458.69
2023-01-17T09:41:23.008Z,98457.25
2023-01-17T09:44:00.002Z,98467.78
2023-01-17T09:46:32.228Z,98458.84
2023-01-17T09:49:29.689Z,98456.94
2023-01-17T09:51:56.376Z,98458.38
2023-01-17T09:54:26.054Z,98463.94
2023-01-17T09:57:19.198Z,98471.31
2023-01-17T10:00:04.206Z,98477.19
2023-01-17T10:02:49.322Z,98488.50
2023-01-17T10:05:27.860Z,98483.25
2023-01-17T10:08:14.837Z,98491.53
2023-01-17T10:10:55.168Z,98493.31
2023-01-17T10:13:27.872Z,98497.78
2023-01-17T10:16:00.941Z,98498.25
2023-01-17T10:18:46.134Z,98496.53
2023-01-17T10:21:25.174Z,98497.78
2023-01-17T10:24:18.132Z,98494.44
2023-01-17T10:26:48.588Z,98507.69
2023-01-17T10:29:20.173Z,98510.56
2023-01-17T10:31:58.625Z,98499.56
2023-01-17T10:34:33.155Z,98500.81
2023-01-17T10:37:17.770Z,98509.09
2023-01-17T10:39:47.773Z,98506.25
2023-01-17T10:42:24.800Z,98499.88
2023-01-17T10:45:07.606Z,98507.50
2023-01-17T10:47:37.828Z,98523.94
2023-01-17T10:50:11.642Z,98528.75
2023-01-17T10:52:53.387Z,98526.97
2023-01-17T10:55:53.482Z,98519.78
2023-01-17T10:58:20.340Z,98512.94
2023-01-17T11:01:00.270Z,98526.97
2023-01-17T11:03:28.778Z,98528.41
2023-01-17T11:06:24.959Z,98526.63
2023-01-17T11:08:57.497Z,98531.13
2023-01-17T11:11:32.013Z,98517.66
2023-01-17T11:14:05.537Z,98522.47
2023-01-17T11:16:32.765Z,98518.00
2023-01-17T11:19:17.479Z,98518.94
2023-01-17T11:21:54.398Z,98514.47
2023-01-17T11:24:30.203Z,98517.78
2023-01-17T11:26:58.162Z,98519.53
2023-01-17T11:29:28.424Z,98515.50
2023-01-17T11:31:58.542Z,98510.69
2023-01-17T11:34:29.459Z,98526.03
2023-01-17T11:37:19.470Z,98525.06
2023-01-17T11:39:49.815Z,98526.00
2023-01-17T11:42:38.165Z,98527.25
2023-01-17T11:45:26.177Z,98521.97
2023-01-17T11:48:17.168Z,98523.72
2023-01-17T11:50:53.672Z,98518.13
2023-01-17T11:53:43.837Z,98526.41
2023-01-17T11:56:18.520Z,98523.84
2023-01-17T11:58:47.301Z,98515.34
2023-01-17T12:01:41.553Z,98513.22
2023-01-17T12:04:23.610Z,98516.41
2023-01-17T12:07:12.167Z,98502.97
2023-01-17T12:10:06.472Z,98504.25
2023-01-17T12:13:06.990Z,98510.13
2023-01-17T12:15:52.167Z,98506.75
2023-01-17T12:18:31.680Z,98513.97
2023-01-17T12:20:58.255Z,98517.59
2023-01-17T12:24:02.398Z,98509.91
2023-01-17T12:26:45.767Z,98503.34
2023-01-17T12:29:42.853Z,98519.81
2023-01-17T12:32:50.936Z,98521.38
2023-01-17T12:35:23.013Z,98512.13
2023-01-17T12:38:04.737Z,98520.72
2023-01-17T12:40:34.670Z,98532.56
2023-01-17T12:43:35.308Z,98518.63
2023-01-17T12:46:07.729Z,98516.34
2023-01-17T12:48:40.228Z,98524.97
2023-01-17T12:51:18.387Z,98516.97
2023-01-17T12:54:07.211Z,98527.19
2023-01-17T12:56:39.630Z,98535.97
2023-01-17T12:59:24.519Z,98531.13
2023-01-17T13:01:58.613Z,98537.47
2023-01-17T13:04:57.407Z,98530.25
2023-01-17T13:07:53.753Z,98540.50
2023-01-17T13:10:41.572Z,98530.50
2023-01-17T13:13:28.626Z,98529.50
2023-01-17T13:16:00.712Z,98528.84
2023-01-17T13:18:29.996Z,98532.16
2023-01-17T13:21:14.858Z,98536.28
2023-01-17T13:23:53.966Z,98531.75
2023-01-17T13:26:40.322Z,98533.16
2023-01-17T13:29:44.865Z,98526.38
2023-01-17T13:32:30.702Z,98519.56
2023-01-17T13:35:22.681Z,98523.25
2023-01-17T13:38:12.449Z,98531.66
2023-01-17T13:40:51.017Z,98526.00
2023-01-17T13:43:30.418Z,98534.44
2023-01-17T13:45:59.836Z,98531.59
2023-01-17T13:48:30.046Z,98532.31
2023-01-17T13:50:59.271Z,98533.34
2023-01-17T13:53:28.752Z,98530.06
2023-01-17T13:56:18.454Z,98533.81
2023-01-17T13:58:51.916Z,98539.50
2023-01-17T14:01:24.503Z,98535.22
2023-01-17T14:03:53.859Z,98535.44
2023-01-17T14:06:38.549Z,98534.88
2023-01-17T14:09:08.150Z,98532.72
2023-01-17T14:11:37.485Z,98531.69
2023-01-17T14:14:41.701Z,98535.66
2023-01-17T14:17:25.623Z,98541.13
2023-01-17T14:20:16.138Z,98533.63
2023-01-17T14:22:52.352Z,98540.75
2023-01-17T14:25:28.079Z,98554.88
2023-01-17T14:28:01.093Z,98547.50
2023-01-17T14:30:34.033Z,98540.88
2023-01-17T14:33:04.833Z,98548.63
2023-01-17T14:35:57.126Z,98542.72
2023-01-17T14:38:27.009Z,98546.94
2023-01-17T14:40:59.185Z,98542.03
2023-01-17T14:43:28.740Z,98544.75
2023-01-17T14:46:04.240Z,98536.56
2023-01-17T14:48:31.148Z,98540.19
2023-01-17T14:51:00.221Z,98536.88
2023-01-17T14:53:31.480Z,98539.03
2023-01-17T14:56:11.306Z,98528.03
2023-01-17T14:58:39.385Z,98536.50
2023-01-17T15:01:20.529Z,98527.88
2023-01-17T15:03:53.089Z,98532.44
2023-01-17T15:06:24.817Z,98535.84
2023-01-17T15:08:54.205Z,98535.38
2023-01-17T15:11:30.267Z,98533.78
2023-01-17T15:13:59.377Z,98545.47
2023-01-17T15:16:28.979Z,98553.19
2023-01-17T15:18:58.386Z,98543.06
2023-01-17T15:21:28.546Z,98550.78
2023-01-17T15:24:07.196Z,98556.91
2023-01-17T15:26:35.435Z,98553.38
2023-01-17T15:29:08.494Z,98556.47
2023-01-17T15:31:44.910Z,98553.75
2023-01-17T15:34:26.831Z,98564.63
2023-01-17T15:36:56.967Z,98563.38
2023-01-17T15:39:41.212Z,98558.72
2023-01-17T15:42:23.280Z,98557.94
2023-01-17T15:45:01.602Z,98566.47
2023-01-17T15:47:28.226Z,98567.56
2023-01-17T15:49:55.291Z,98573.69
2023-01-17T15:52:22.087Z,98556.09
2023-01-17T15:54:53.342Z,98566.63
2023-01-17T15:57:29.450Z,98557.81
2023-01-17T16:00:18.730Z,98563.72
2023-01-17T16:02:55.241Z,98561.47
2023-01-17T16:05:22.424Z,98553.75
2023-01-17T16:07:58.547Z,98565.75
2023-01-17T16:10:35.653Z,98558.72
2023-01-17T16:13:07.147Z,98568.03
2023-01-17T16:15:35.350Z,98562.34
2023-01-17T16:18:03.965Z,98564.47
2023-01-17T16:20:42.798Z,98552.19
2023-01-17T16:23:10.465Z,98556.22
2023-01-17T16:25:38.462Z,98568.81
2023-01-17T16:28:06.175Z,98567.09
2023-01-17T16:30:33.795Z,98571.94
2023-01-17T16:33:00.572Z,98572.13
2023-01-17T16:35:30.433Z,98572.34
2023-01-17T16:38:06.190Z,98574.13
2023-01-17T16:40:38.711Z,98569.38
2023-01-17T16:43:05.399Z,98575.47
2023-01-17T16:45:40.468Z,98587.00
2023-01-17T16:48:07.649Z,98590.38
2023-01-17T16:50:34.609Z,98589.13
2023-01-17T16:53:01.296Z,98587.88
2023-01-17T16:55:27.936Z,98594.44
2023-01-17T16:57:58.812Z,98601.31
2023-01-17T17:00:26.951Z,98611.28
2023-01-17T17:02:54.785Z,98604.91
2023-01-17T17:05:23.157Z,98609.56
2023-01-17T17:07:51.925Z,98621.56
2023-01-17T17:10:21.274Z,98614.84
2023-01-17T17:12:48.261Z,98614.06
2023-01-17T17:15:15.166Z,98616.31
2023-01-17T17:17:43.336Z,98620.94
2023-01-17T17:20:14.935Z,98617.78
2023-01-17T17:22:44.106Z,98624.66
2023-01-17T17:25:15.960Z,98632.34
2023-01-17T17:27:43.041Z,98622.91
2023-01-17T17:30:10.775Z,98628.22
2023-01-17T17:32:37.417Z,98627.28
2023-01-17T17:35:04.616Z,98622.47
2023-01-17T17:37:31.346Z,98634.03
2023-01-17T17:39:58.138Z,98630.34
2023-01-17T17:42:24.993Z,98629.91
2023-01-17T17:44:51.741Z,98634.88
2023-01-17T17:47:18.339Z,98631.66
2023-01-17T17:49:44.984Z,98626.88
2023-01-17T17:52:11.701Z,98628.00
2023-01-17T17:54:38.410Z,98629.47
2023-01-17T17:57:05.156Z,98635.19
2023-01-17T17:59:32.026Z,98637.47
2023-01-17T18:01:59.814Z,98641.31
2023-01-17T18:04:27.125Z,98647.06
2023-01-17T18:06:59.669Z,98650.13
2023-01-17T18:09:26.171Z,98649.97
2023-01-17T18:11:52.893Z,98653.00
2023-01-17T18:14:21.237Z,98659.91
2023-01-17T18:16:48.411Z,98674.13
2023-01-17T18:19:23.416Z,98673.63
2023-01-17T18:21:51.474Z,98683.72
2023-01-17T18:24:20.758Z,98682.13
2023-01-17T18:26:53.645Z,98680.50
2023-01-17T18:29:21.543Z,98686.63
2023-01-17T18:31:52.596Z,98695.06
2023-01-17T18:34:24.058Z,98691.56
2023-01-17T18:36:51.888Z,98692.69
2023-01-17T18:39:27.121Z,98693.81
2023-01-17T18:41:54.432Z,98691.44
2023-01-17T18:44:22.358Z,98692.53
2023-01-17T18:46:50.405Z,98690.16
2023-01-17T18:49:19.365Z,98682.00
2023-01-17T18:51:50.375Z,98685.81
2023-01-17T18:54:18.039Z,98687.44
2023-01-17T18:56:44.766Z,98694.63
2023-01-17T18:59:13.099Z,98691.91
2023-01-17T19:01:42.344Z,98693.00
2023-01-17T19:04:09.577Z,98705.81
2023-01-17T19:06:38.684Z,98701.81
2023-01-17T19:09:07.535Z,98699.13
2023-01-17T19:11:36.764Z,98709.97
2023-01-17T19:14:05.728Z,98712.19
2023-01-17T19:16:39.235Z,98699.75
2023-01-17T19:19:08.612Z,98700.06
2023-01-17T19:21:35.854Z,98702.00
2023-01-17T19:24:03.172Z,98704.22
2023-01-17T19:26:30.095Z,98713.50
2023-01-17T19:29:03.736Z,98705.66
2023-01-17T19:31:32.351Z,98704.06
2023-01-17T19:33:59.849Z,98697.84
2023-01-17T19:36:31.508Z,98692.06
2023-01-17T19:39:05.012Z,98691.25
2023-01-17T19:41:34.806Z,98688.88
2023-01-17T19:44:06.707Z,98693.22
2023-01-17T19:46:34.652Z,98698.94
2023-01-17T19:49:01.649Z,98696.22
2023-01-17T19:51:28.745Z,98689.22
2023-01-17T19:53:56.564Z,98691.94
2023-01-17T19:56:25.829Z,98691.44
2023-01-17T19:58:53.335Z,98688.72
2023-01-17T20:01:24.539Z,98693.03
2023-01-17T20:03:52.223Z,98697.84
2023-01-17T20:06:25.335Z,98691.44
2023-01-17T20:08:52.001Z,98687.59
2023-01-17T20:11:20.966Z,98678.66
2023-01-17T20:13:53.382Z,98684.88
2023-01-17T20:16:21.479Z,98687.28
2023-01-17T20:18:48.349Z,98690.47
2023-01-17T20:21:17.441Z,98678.94
2023-01-17T20:23:47.544Z,98680.56
2023-01-17T20:26:16.039Z,98683.75
2023-01-17T20:28:45.427Z,98669.06
2023-01-17T20:31:17.337Z,98678.78
2023-01-17T20:33:45.536Z,98674.16
2023-01-17T20:36:14.943Z,98668.72
2023-01-17T20:38:45.347Z,98667.59
2023-01-17T20:41:17.085Z,98668.72
2023-01-17T20:43:46.724Z,98678.16
2023-01-17T20:46:14.437Z,98678.94
2023-01-17T20:48:49.731Z,98679.75
2023-01-17T20:51:17.254Z,98681.81
2023-01-17T20:53:46.122Z,98682.59
2023-01-17T20:56:15.367Z,98692.06
2023-01-17T20:58:42.711Z,98684.38
2023-01-17T21:01:11.549Z,98676.69
2023-01-17T21:03:39.666Z,98678.28
2023-01-17T21:06:11.535Z,98682.59
2023-01-17T21:08:39.602Z,98686.13
2023-01-17T21:11:07.670Z,98689.63
2023-01-17T21:13:34.832Z,98687.72
2023-01-17T21:16:02.536Z,98681.94
2023-01-17T21:18:32.657Z,98676.97
2023-01-17T21:21:08.136Z,98675.41
2023-01-17T21:23:35.962Z,98687.72
2023-01-17T21:26:03.561Z,98683.41
2023-01-17T21:28:33.433Z,98689.94
2023-01-17T21:31:00.228Z,98672.84
2023-01-17T21:33:29.398Z,98672.38
2023-01-17T21:36:07.803Z,98687.56
2023-01-17T21:38:34.461Z,98682.13
2023-01-17T21:41:01.129Z,98676.69
2023-01-17T21:43:28.014Z,98686.91
2023-01-17T21:45:54.836Z,98698.59
2023-01-17T21:48:21.533Z,98704.81
2023-01-17T21:50:52.237Z,98706.88
2023-01-17T21:53:18.940Z,98708.16
2023-01-17T21:56:04.115Z,98718.09
2023-01-17T21:58:46.067Z,98715.19
2023-01-17T22:01:21.908Z,98721.25
2023-01-17T22:03:57.123Z,98716.75
2023-01-17T22:06:27.676Z,98726.81
2023-01-17T22:08:54.876Z,98728.44
2023-01-17T22:11:26.188Z,98720.28
2023-01-17T22:13:53.383Z,98723.94
2023-01-17T22:16:23.425Z,98727.47
2023-01-17T22:18:52.091Z,98719.00
2023-01-17T22:21:24.777Z,98728.09
2023-01-17T22:23:57.154Z,98737.50
2023-01-17T22:26:25.308Z,98739.94
2023-01-17T22:28:52.386Z,98737.97
2023-01-17T22:31:25.221Z,98739.94
2023-01-17T22:33:54.774Z,98748.56
2023-01-17T22:36:21.993Z,98747.91
2023-01-17T22:38:49.091Z,98760.38
2023-01-17T22:41:29.879Z,98751.09
2023-01-17T22:43:58.830Z,98758.16
2023-01-17T22:46:28.140Z,98760.38
2023-01-17T22:48:56.238Z,98761.97
2023-01-17T22:51:24.352Z,98756.19
2023-01-17T22:53:53.152Z,98758.16
2023-01-17T22:56:22.600Z,98758.16
2023-01-17T22:58:50.184Z,98758.16
2023-01-17T23:01:25.275Z,98762.31
2023-01-17T23:03:54.333Z,98753.66
2023-01-17T23:06:25.554Z,98742.31
2023-01-17T23:08:54.642Z,98744.22
2023-01-17T23:11:39.194Z,98742.94
2023-01-17T23:14:07.833Z,98735.13
2023-01-17T23:16:53.009Z,98741.38
2023-01-17T23:19:22.752Z,98726.97
2023-01-17T23:22:09.796Z,98738.31
2023-01-17T23:24:39.559Z,98720.38
2023-01-17T23:27:24.840Z,98726.97
2023-01-17T23:29:51.497Z,98730.50
2023-01-17T23:32:18.128Z,98720.09
2023-01-17T23:34:44.854Z,98728.72
2023-01-17T23:37:11.501Z,98735.41
2023-01-17T23:39:38.113Z,98742.47
2023-01-17T23:42:28.054Z,98745.66
2023-01-17T23:44:54.674Z,98741.81
2023-01-17T23:47:21.308Z,98748.84
2023-01-17T23:49:50.952Z,98752.03
2023-01-17T23:52:17.603Z,98748.19
2023-01-17T23:54:44.221Z,98750.63
2023-01-17T23:57:10.911Z,98750.28
2023-01-17T23:59:37.610Z,98762.75
